MSR968 HECA-VABB
Flight info
| Callsign | MSR968 |
|---|---|
| Flight time | N/A |
| Altitude | 39000 |
| Route | HECA/23C CVO L315 HGD M872 WEJ DCT PMA DCT BDB DCT TUKVU DCT ALRIK DCT GISKA DCT REXOD DCT BOLIS DCT BISET KETOR2A |
| Aircraft | A332/H-SDE3GHIJ2J3J5M1RVWXY/LB2D1 |
Departure
| Time | N/A |
|---|---|
| Airport | Cairo International Airport (HECA) |
Arrival
| Time | 2026-05-04 17:53 |
|---|---|
| Airport | Chhatrapati Shivaji Maharaj International Airport (VABB) |
| Time | Latitude | Longitude | Altitude | Speed | Heading |
|---|---|---|---|---|---|
| 2026-05-04 15:05 | 21.88131 | 53.56470 | 38739 ft | 503 kts | 93° |
| 2026-05-04 15:05 | 21.87905 | 53.60223 | 38739 ft | 503 kts | 93° |
| 2026-05-04 15:05 | 21.87452 | 53.67731 | 38737 ft | 502 kts | 93° |
| 2026-05-04 15:06 | 21.86995 | 53.75240 | 38738 ft | 502 kts | 93° |
| 2026-05-04 15:07 | 21.86304 | 53.86498 | 38740 ft | 502 kts | 93° |
| 2026-05-04 15:07 | 21.86080 | 53.90117 | 38736 ft | 502 kts | 93° |
| 2026-05-04 15:08 | 21.85618 | 53.97560 | 38738 ft | 502 kts | 93° |
| 2026-05-04 15:08 | 21.85149 | 54.05058 | 38734 ft | 501 kts | 93° |
| 2026-05-04 15:09 | 21.84677 | 54.12544 | 38739 ft | 501 kts | 93° |
| 2026-05-04 15:09 | 21.84200 | 54.20029 | 38735 ft | 501 kts | 93° |
| 2026-05-04 15:10 | 21.83482 | 54.31246 | 38730 ft | 501 kts | 93° |
| 2026-05-04 15:11 | 21.82755 | 54.42467 | 38734 ft | 501 kts | 93° |
| 2026-05-04 15:11 | 21.82266 | 54.49936 | 38731 ft | 500 kts | 93° |
| 2026-05-04 15:12 | 21.81775 | 54.57399 | 38729 ft | 500 kts | 93° |
| 2026-05-04 15:12 | 21.81280 | 54.64869 | 38732 ft | 500 kts | 93° |
| 2026-05-04 15:13 | 21.80785 | 54.72298 | 38730 ft | 500 kts | 93° |
| 2026-05-04 15:13 | 21.80284 | 54.79750 | 38731 ft | 499 kts | 93° |
| 2026-05-04 15:14 | 21.79780 | 54.87201 | 38728 ft | 499 kts | 93° |
| 2026-05-04 15:14 | 21.79272 | 54.94676 | 38730 ft | 499 kts | 93° |
| 2026-05-04 15:15 | 21.78761 | 55.02126 | 38729 ft | 499 kts | 93° |
| 2026-05-04 15:15 | 21.78248 | 55.09567 | 38731 ft | 499 kts | 93° |
| 2026-05-04 15:16 | 21.77475 | 55.20678 | 38731 ft | 498 kts | 93° |
| 2026-05-04 15:17 | 21.76692 | 55.31832 | 38729 ft | 498 kts | 93° |
| 2026-05-04 15:17 | 21.75901 | 55.42982 | 38728 ft | 497 kts | 93° |
| 2026-05-04 15:18 | 21.75372 | 55.50394 | 38729 ft | 497 kts | 93° |
| 2026-05-04 15:19 | 21.74574 | 55.61474 | 38729 ft | 497 kts | 93° |
| 2026-05-04 15:19 | 21.73766 | 55.72577 | 38730 ft | 496 kts | 93° |
| 2026-05-04 15:20 | 21.73224 | 55.79975 | 38726 ft | 496 kts | 94° |
| 2026-05-04 15:20 | 21.72680 | 55.87367 | 38726 ft | 495 kts | 94° |
| 2026-05-04 15:21 | 21.72131 | 55.94763 | 38726 ft | 495 kts | 94° |
| 2026-05-04 15:22 | 21.71304 | 56.05835 | 38731 ft | 495 kts | 94° |
| 2026-05-04 15:22 | 21.70470 | 56.16903 | 38732 ft | 494 kts | 94° |
| 2026-05-04 15:23 | 21.69910 | 56.24269 | 38729 ft | 494 kts | 94° |
| 2026-05-04 15:23 | 21.69348 | 56.31633 | 38730 ft | 493 kts | 94° |
| 2026-05-04 15:24 | 21.68216 | 56.46324 | 38734 ft | 493 kts | 94° |
| 2026-05-04 15:25 | 21.67646 | 56.53659 | 38738 ft | 492 kts | 94° |
| 2026-05-04 15:26 | 21.66785 | 56.64666 | 38733 ft | 492 kts | 94° |
| 2026-05-04 15:26 | 21.65918 | 56.75653 | 38745 ft | 491 kts | 94° |
| 2026-05-04 15:27 | 21.65044 | 56.86631 | 38745 ft | 491 kts | 94° |
| 2026-05-04 15:28 | 21.64164 | 56.97604 | 38726 ft | 491 kts | 94° |
| 2026-05-04 15:29 | 21.63275 | 57.08579 | 38736 ft | 491 kts | 94° |
| 2026-05-04 15:30 | 21.61169 | 57.34284 | 38734 ft | 491 kts | 95° |
| 2026-05-04 15:31 | 21.60260 | 57.45264 | 38734 ft | 491 kts | 95° |
| 2026-05-04 15:32 | 21.58727 | 57.63602 | 38720 ft | 491 kts | 95° |
| 2026-05-04 15:34 | 21.57161 | 57.81944 | 38714 ft | 491 kts | 95° |
| 2026-05-04 15:34 | 21.56357 | 57.91788 | 38722 ft | 491 kts | 95° |
| 2026-05-04 15:35 | 21.55429 | 58.02792 | 38721 ft | 491 kts | 95° |
| 2026-05-04 15:36 | 21.54491 | 58.13798 | 38721 ft | 491 kts | 95° |
| 2026-05-04 15:36 | 21.53865 | 58.21111 | 38707 ft | 491 kts | 95° |
| 2026-05-04 15:37 | 21.53236 | 58.28410 | 38726 ft | 491 kts | 95° |
| 2026-05-04 15:37 | 21.52599 | 58.35768 | 38712 ft | 491 kts | 95° |
| 2026-05-04 15:38 | 21.51962 | 58.43091 | 38712 ft | 492 kts | 95° |
| 2026-05-04 15:38 | 21.51318 | 58.50458 | 38725 ft | 492 kts | 95° |
| 2026-05-04 15:39 | 21.50675 | 58.57777 | 38737 ft | 492 kts | 95° |
| 2026-05-04 15:40 | 21.49702 | 58.68776 | 38734 ft | 493 kts | 95° |
| 2026-05-04 15:40 | 21.49042 | 58.76193 | 38736 ft | 493 kts | 95° |
| 2026-05-04 15:41 | 21.48385 | 58.83534 | 38743 ft | 493 kts | 95° |
| 2026-05-04 15:41 | 21.47723 | 58.90902 | 38752 ft | 493 kts | 95° |
| 2026-05-04 15:42 | 21.47060 | 58.98234 | 38747 ft | 492 kts | 95° |
| 2026-05-04 15:42 | 21.46393 | 59.05592 | 38748 ft | 492 kts | 95° |
| 2026-05-04 15:43 | 21.45726 | 59.12904 | 38748 ft | 492 kts | 95° |
| 2026-05-04 15:43 | 21.45057 | 59.20197 | 38758 ft | 491 kts | 95° |
| 2026-05-04 15:44 | 21.44384 | 59.27500 | 38754 ft | 491 kts | 95° |
| 2026-05-04 15:44 | 21.43703 | 59.34860 | 38746 ft | 491 kts | 95° |
| 2026-05-04 15:45 | 21.43020 | 59.42207 | 38743 ft | 491 kts | 95° |
| 2026-05-04 15:45 | 21.42338 | 59.49503 | 38738 ft | 492 kts | 95° |
| 2026-05-04 15:46 | 21.41652 | 59.56809 | 38741 ft | 492 kts | 95° |
| 2026-05-04 15:46 | 21.40959 | 59.64156 | 38739 ft | 492 kts | 95° |
| 2026-05-04 15:47 | 21.40262 | 59.71510 | 38741 ft | 492 kts | 96° |
| 2026-05-04 15:47 | 21.39565 | 59.78821 | 38736 ft | 492 kts | 96° |
| 2026-05-04 15:48 | 21.38861 | 59.86178 | 38738 ft | 492 kts | 96° |
| 2026-05-04 15:48 | 21.37805 | 59.97155 | 38734 ft | 493 kts | 96° |
| 2026-05-04 15:49 | 21.37216 | 60.03239 | 38739 ft | 493 kts | 96° |
| 2026-05-04 15:49 | 21.36501 | 60.10599 | 38738 ft | 493 kts | 96° |
| 2026-05-04 15:50 | 21.35787 | 60.17913 | 38751 ft | 493 kts | 96° |
| 2026-05-04 15:50 | 21.35069 | 60.25232 | 38744 ft | 493 kts | 96° |
| 2026-05-04 15:51 | 21.34347 | 60.32561 | 38734 ft | 493 kts | 96° |
| 2026-05-04 15:51 | 21.33618 | 60.39931 | 38740 ft | 493 kts | 96° |
| 2026-05-04 15:52 | 21.32890 | 60.47259 | 38747 ft | 494 kts | 96° |
| 2026-05-04 15:52 | 21.32159 | 60.54581 | 38739 ft | 494 kts | 96° |
| 2026-05-04 15:53 | 21.31424 | 60.61909 | 38755 ft | 494 kts | 96° |
| 2026-05-04 15:53 | 21.30691 | 60.69194 | 38750 ft | 494 kts | 96° |
| 2026-05-04 15:54 | 21.29953 | 60.76486 | 38748 ft | 494 kts | 96° |
| 2026-05-04 15:54 | 21.29208 | 60.83822 | 38753 ft | 495 kts | 96° |
| 2026-05-04 15:55 | 21.28460 | 60.91155 | 38759 ft | 495 kts | 96° |
| 2026-05-04 15:55 | 21.27708 | 60.98496 | 38758 ft | 495 kts | 96° |
| 2026-05-04 15:56 | 21.26951 | 61.05844 | 38749 ft | 495 kts | 96° |
| 2026-05-04 15:56 | 21.26193 | 61.13185 | 38753 ft | 495 kts | 96° |
| 2026-05-04 15:57 | 21.25414 | 61.20686 | 38748 ft | 496 kts | 96° |
| 2026-05-04 15:57 | 21.24648 | 61.28032 | 38747 ft | 496 kts | 96° |
| 2026-05-04 15:58 | 21.23879 | 61.35383 | 38763 ft | 496 kts | 96° |
| 2026-05-04 15:58 | 21.23105 | 61.42742 | 38754 ft | 497 kts | 96° |
| 2026-05-04 15:59 | 21.22323 | 61.50153 | 38760 ft | 497 kts | 96° |
| 2026-05-04 15:59 | 21.21533 | 61.57621 | 38770 ft | 497 kts | 96° |
| 2026-05-04 16:00 | 21.20679 | 61.65032 | 38759 ft | 497 kts | 100° |
| 2026-05-04 16:00 | 21.19316 | 61.72370 | 38765 ft | 498 kts | 101° |
| 2026-05-04 16:01 | 21.17977 | 61.79700 | 38758 ft | 498 kts | 101° |
| 2026-05-04 16:01 | 21.16644 | 61.86992 | 38757 ft | 498 kts | 101° |
| 2026-05-04 16:02 | 21.15301 | 61.94292 | 38766 ft | 499 kts | 101° |
| 2026-05-04 16:03 | 21.13266 | 62.05283 | 38759 ft | 500 kts | 100° |
| 2026-05-04 16:03 | 21.11910 | 62.12588 | 38770 ft | 499 kts | 102° |
| 2026-05-04 16:04 | 21.10551 | 62.19886 | 38775 ft | 500 kts | 102° |
| 2026-05-04 16:04 | 21.08720 | 62.29702 | 38768 ft | 500 kts | 102° |
| 2026-05-04 16:05 | 21.07356 | 62.37000 | 38762 ft | 500 kts | 102° |
| 2026-05-04 16:06 | 21.05301 | 62.47960 | 38764 ft | 500 kts | 102° |
| 2026-05-04 16:07 | 21.02556 | 62.62530 | 38776 ft | 501 kts | 102° |
| 2026-05-04 16:08 | 20.99790 | 62.77143 | 38774 ft | 501 kts | 102° |
| 2026-05-04 16:09 | 20.96306 | 62.95443 | 38775 ft | 501 kts | 102° |
| 2026-05-04 16:10 | 20.93500 | 63.10108 | 38788 ft | 501 kts | 102° |
| 2026-05-04 16:11 | 20.90677 | 63.24785 | 38782 ft | 501 kts | 102° |
| 2026-05-04 16:12 | 20.86432 | 63.46724 | 38789 ft | 501 kts | 102° |
| 2026-05-04 16:13 | 20.83592 | 63.61312 | 38789 ft | 501 kts | 102° |
| 2026-05-04 16:14 | 20.80733 | 63.75934 | 38776 ft | 501 kts | 102° |
| 2026-05-04 16:16 | 20.77141 | 63.94200 | 38778 ft | 501 kts | 102° |
| 2026-05-04 16:17 | 20.73543 | 64.12393 | 38790 ft | 500 kts | 102° |
| 2026-05-04 16:18 | 20.70654 | 64.26928 | 38790 ft | 500 kts | 102° |
| 2026-05-04 16:19 | 20.67027 | 64.45079 | 38792 ft | 500 kts | 102° |
| 2026-05-04 16:20 | 20.63379 | 64.63230 | 38792 ft | 499 kts | 102° |
| 2026-05-04 16:22 | 20.59724 | 64.81317 | 38796 ft | 499 kts | 102° |
| 2026-05-04 16:23 | 20.54508 | 65.02777 | 38792 ft | 494 kts | 114° |
| 2026-05-04 16:25 | 20.45060 | 65.22339 | 38794 ft | 494 kts | 118° |
| 2026-05-04 16:26 | 20.33959 | 65.45060 | 38800 ft | 494 kts | 118° |
| 2026-05-04 16:28 | 20.25993 | 65.61302 | 38802 ft | 494 kts | 118° |
| 2026-05-04 16:29 | 20.14836 | 65.83969 | 38804 ft | 493 kts | 118° |
| 2026-05-04 16:31 | 20.06857 | 66.00125 | 38808 ft | 493 kts | 118° |
| 2026-05-04 16:32 | 19.97741 | 66.18526 | 38813 ft | 493 kts | 118° |
| 2026-05-04 16:33 | 19.91340 | 66.31411 | 38807 ft | 492 kts | 118° |
| 2026-05-04 16:34 | 19.86509 | 66.41115 | 38812 ft | 492 kts | 118° |
| 2026-05-04 16:35 | 19.76887 | 66.60398 | 38814 ft | 492 kts | 118° |
| 2026-05-04 16:36 | 19.72071 | 66.70026 | 38816 ft | 492 kts | 118° |
| 2026-05-04 16:37 | 19.67230 | 66.79686 | 38814 ft | 492 kts | 118° |
| 2026-05-04 16:38 | 19.60800 | 66.92492 | 38815 ft | 492 kts | 118° |
| 2026-05-04 16:39 | 19.52710 | 67.08565 | 38817 ft | 492 kts | 118° |
| 2026-05-04 16:40 | 19.46233 | 67.21402 | 38825 ft | 492 kts | 118° |
| 2026-05-04 16:41 | 19.38152 | 67.37378 | 38825 ft | 492 kts | 118° |
| 2026-05-04 16:43 | 19.30037 | 67.53376 | 38823 ft | 492 kts | 118° |
| 2026-05-04 16:43 | 19.25173 | 67.62946 | 38827 ft | 492 kts | 118° |
| 2026-05-04 16:45 | 19.15450 | 67.82028 | 38826 ft | 492 kts | 118° |
| 2026-05-04 16:46 | 19.07311 | 67.97953 | 38828 ft | 492 kts | 118° |
| 2026-05-04 16:47 | 19.00786 | 68.10690 | 38831 ft | 492 kts | 119° |
| 2026-05-04 16:48 | 18.94226 | 68.23470 | 38836 ft | 493 kts | 119° |
| 2026-05-04 16:49 | 18.87682 | 68.36190 | 38837 ft | 493 kts | 119° |
| 2026-05-04 16:50 | 18.81127 | 68.48905 | 38839 ft | 493 kts | 119° |
| 2026-05-04 16:51 | 18.76200 | 68.58445 | 38840 ft | 493 kts | 119° |
| 2026-05-04 16:52 | 18.69646 | 68.71112 | 38839 ft | 493 kts | 119° |
| 2026-05-04 16:53 | 18.65241 | 68.79611 | 38839 ft | 493 kts | 119° |
| 2026-05-04 16:54 | 18.58654 | 68.92298 | 38841 ft | 493 kts | 119° |
| 2026-05-04 16:55 | 18.48752 | 69.11321 | 38846 ft | 493 kts | 119° |
| 2026-05-04 16:56 | 18.40719 | 69.27292 | 38838 ft | 493 kts | 110° |
| 2026-05-04 16:57 | 18.39038 | 69.37901 | 38845 ft | 491 kts | 87° |
| 2026-05-04 16:58 | 18.39378 | 69.52290 | 38846 ft | 492 kts | 88° |
| 2026-05-04 17:00 | 18.39795 | 69.73900 | 38846 ft | 492 kts | 88° |
| 2026-05-04 17:01 | 18.40127 | 69.91974 | 38842 ft | 492 kts | 88° |
| 2026-05-04 17:02 | 18.40381 | 70.06448 | 38841 ft | 493 kts | 88° |
| 2026-05-04 17:03 | 18.40564 | 70.17333 | 38837 ft | 493 kts | 88° |
| 2026-05-04 17:03 | 18.40742 | 70.28215 | 38841 ft | 493 kts | 88° |
| 2026-05-04 17:04 | 18.40968 | 70.42679 | 38838 ft | 494 kts | 88° |
| 2026-05-04 17:05 | 18.41184 | 70.57201 | 38844 ft | 494 kts | 88° |
| 2026-05-04 17:06 | 18.41338 | 70.68054 | 38838 ft | 494 kts | 88° |
| 2026-05-04 17:07 | 18.41470 | 70.77733 | 38840 ft | 494 kts | 88° |
| 2026-05-04 17:07 | 18.41581 | 70.86205 | 38839 ft | 495 kts | 88° |
| 2026-05-04 17:08 | 18.41720 | 70.97125 | 38839 ft | 495 kts | 88° |
| 2026-05-04 17:09 | 18.41808 | 71.04376 | 38842 ft | 495 kts | 88° |
| 2026-05-04 17:09 | 18.41894 | 71.11644 | 38839 ft | 496 kts | 88° |
| 2026-05-04 17:10 | 18.42084 | 71.28531 | 38838 ft | 496 kts | 88° |
| 2026-05-04 17:12 | 18.42156 | 71.35333 | 38839 ft | 496 kts | 88° |
| 2026-05-04 17:13 | 18.42336 | 71.53575 | 38357 ft | 498 kts | 88° |
| 2026-05-04 17:14 | 18.42438 | 71.64518 | 37575 ft | 498 kts | 88° |
| 2026-05-04 17:14 | 18.42471 | 71.68216 | 37245 ft | 498 kts | 88° |
| 2026-05-04 17:14 | 18.42534 | 71.75548 | 35535 ft | 503 kts | 88° |
| 2026-05-04 17:15 | 18.42565 | 71.79253 | 34361 ft | 508 kts | 89° |
| 2026-05-04 17:15 | 18.42621 | 71.86723 | 31855 ft | 509 kts | 88° |
| 2026-05-04 17:16 | 18.42671 | 71.94007 | 30290 ft | 495 kts | 88° |
| 2026-05-04 17:16 | 18.42824 | 72.04355 | 29837 ft | 446 kts | 81° |
| 2026-05-04 17:17 | 18.43486 | 72.07481 | 29688 ft | 428 kts | 68° |
| 2026-05-04 17:17 | 18.48557 | 72.14551 | 28477 ft | 399 kts | 40° |
| 2026-05-04 17:18 | 18.50592 | 72.16526 | 27913 ft | 397 kts | 41° |
| 2026-05-04 17:18 | 18.54484 | 72.20607 | 26946 ft | 390 kts | 44° |
| 2026-05-04 17:19 | 18.58176 | 72.24734 | 26009 ft | 383 kts | 44° |
| 2026-05-04 17:19 | 18.61773 | 72.28804 | 25099 ft | 376 kts | 44° |
| 2026-05-04 17:20 | 18.65309 | 72.32804 | 24207 ft | 369 kts | 44° |
| 2026-05-04 17:20 | 18.68786 | 72.36733 | 23250 ft | 365 kts | 44° |
| 2026-05-04 17:20 | 18.70484 | 72.38654 | 22853 ft | 359 kts | 45° |
| 2026-05-04 17:21 | 18.73837 | 72.42449 | 21995 ft | 348 kts | 45° |
| 2026-05-04 17:21 | 18.77091 | 72.46133 | 21165 ft | 339 kts | 45° |
| 2026-05-04 17:22 | 18.78687 | 72.47941 | 20758 ft | 334 kts | 45° |
| 2026-05-04 17:22 | 18.80265 | 72.49729 | 20350 ft | 330 kts | 45° |
| 2026-05-04 17:23 | 18.84873 | 72.54953 | 19158 ft | 318 kts | 45° |
| 2026-05-04 17:23 | 18.86371 | 72.56653 | 18770 ft | 314 kts | 45° |
| 2026-05-04 17:23 | 18.89246 | 72.59925 | 18445 ft | 289 kts | 46° |
| 2026-05-04 17:24 | 18.90296 | 72.61650 | 18327 ft | 279 kts | 65° |
| 2026-05-04 17:24 | 18.90867 | 72.68070 | 17869 ft | 299 kts | 86° |
| 2026-05-04 17:25 | 18.90937 | 72.70292 | 17219 ft | 306 kts | 86° |
| 2026-05-04 17:25 | 18.91120 | 72.74836 | 16256 ft | 303 kts | 86° |
| 2026-05-04 17:26 | 18.91300 | 72.79175 | 15591 ft | 289 kts | 86° |
| 2026-05-04 17:26 | 18.91562 | 72.85529 | 14602 ft | 316 kts | 86° |
| 2026-05-04 17:27 | 18.91749 | 72.90216 | 14384 ft | 313 kts | 87° |
| 2026-05-04 17:27 | 18.91925 | 72.94701 | 13574 ft | 306 kts | 87° |
| 2026-05-04 17:28 | 18.92100 | 72.99144 | 12559 ft | 299 kts | 87° |
| 2026-05-04 17:29 | 18.92349 | 73.05507 | 11404 ft | 275 kts | 88° |
| 2026-05-04 17:29 | 18.92574 | 73.11295 | 10467 ft | 264 kts | 88° |
| 2026-05-04 17:30 | 18.92809 | 73.17372 | 9802 ft | 256 kts | 88° |
| 2026-05-04 17:31 | 18.92957 | 73.20869 | 9502 ft | 222 kts | 88° |
| 2026-05-04 17:31 | 18.93145 | 73.25373 | 9027 ft | 190 kts | 88° |
| 2026-05-04 17:32 | 18.93253 | 73.28049 | 8721 ft | 184 kts | 88° |
| 2026-05-04 17:33 | 18.93565 | 73.32080 | 8237 ft | 184 kts | 65° |
| 2026-05-04 17:33 | 18.94385 | 73.33064 | 8114 ft | 181 kts | 27° |
| 2026-05-04 17:34 | 18.97139 | 73.31676 | 7720 ft | 169 kts | 284° |
| 2026-05-04 17:34 | 18.97481 | 73.30486 | 7569 ft | 167 kts | 287° |
| 2026-05-04 17:35 | 18.98919 | 73.27180 | 6921 ft | 163 kts | 297° |
| 2026-05-04 17:35 | 19.00023 | 73.25069 | 6431 ft | 162 kts | 297° |
| 2026-05-04 17:35 | 19.00550 | 73.24038 | 6234 ft | 157 kts | 297° |
| 2026-05-04 17:36 | 19.01069 | 73.23014 | 5971 ft | 159 kts | 296° |
| 2026-05-04 17:36 | 19.01585 | 73.21984 | 5703 ft | 158 kts | 296° |
| 2026-05-04 17:36 | 19.02102 | 73.20953 | 5445 ft | 159 kts | 296° |
| 2026-05-04 17:36 | 19.02617 | 73.19924 | 5197 ft | 159 kts | 296° |
| 2026-05-04 17:37 | 19.03133 | 73.18892 | 4959 ft | 158 kts | 296° |
| 2026-05-04 17:37 | 19.03512 | 73.17806 | 4690 ft | 157 kts | 280° |
| 2026-05-04 17:37 | 19.03710 | 73.16676 | 4444 ft | 156 kts | 278° |
| 2026-05-04 17:37 | 19.03890 | 73.15543 | 4166 ft | 157 kts | 278° |
| 2026-05-04 17:38 | 19.04079 | 73.14395 | 3936 ft | 157 kts | 278° |
| 2026-05-04 17:38 | 19.04281 | 73.13253 | 3713 ft | 157 kts | 278° |
| 2026-05-04 17:38 | 19.04484 | 73.12116 | 3484 ft | 157 kts | 278° |
| 2026-05-04 17:38 | 19.04691 | 73.10977 | 3241 ft | 159 kts | 277° |
| 2026-05-04 17:39 | 19.05142 | 73.08432 | 3976 ft | 181 kts | 278° |
| 2026-05-04 17:39 | 19.05372 | 73.07134 | 4617 ft | 179 kts | 279° |
| 2026-05-04 17:39 | 19.05605 | 73.05834 | 4865 ft | 180 kts | 280° |
| 2026-05-04 17:40 | 19.05842 | 73.04541 | 4968 ft | 178 kts | 280° |
| 2026-05-04 17:40 | 19.06073 | 73.03274 | 4998 ft | 181 kts | 280° |
| 2026-05-04 17:40 | 19.06312 | 73.01955 | 4995 ft | 179 kts | 280° |
| 2026-05-04 17:40 | 19.06545 | 73.00663 | 4996 ft | 180 kts | 280° |
| 2026-05-04 17:41 | 19.06776 | 72.99377 | 4988 ft | 177 kts | 280° |
| 2026-05-04 17:41 | 19.07001 | 72.98123 | 4949 ft | 169 kts | 280° |
| 2026-05-04 17:41 | 19.07181 | 72.97323 | 4866 ft | 163 kts | 289° |
| 2026-05-04 17:41 | 19.07809 | 72.96372 | 4677 ft | 159 kts | 317° |
| 2026-05-04 17:42 | 19.08800 | 72.95871 | 4349 ft | 166 kts | 348° |
| 2026-05-04 17:42 | 19.09947 | 72.95821 | 4062 ft | 168 kts | 7° |
| 2026-05-04 17:42 | 19.10964 | 72.96429 | 3910 ft | 177 kts | 50° |
| 2026-05-04 17:42 | 19.11567 | 72.97558 | 4230 ft | 180 kts | 59° |
| 2026-05-04 17:43 | 19.12263 | 72.98687 | 4006 ft | 187 kts | 56° |
| 2026-05-04 17:43 | 19.12971 | 72.99784 | 3987 ft | 175 kts | 55° |
| 2026-05-04 17:43 | 19.13619 | 73.00900 | 3955 ft | 178 kts | 70° |
| 2026-05-04 17:43 | 19.13737 | 73.02168 | 4130 ft | 181 kts | 93° |
| 2026-05-04 17:44 | 19.13565 | 73.03562 | 4129 ft | 198 kts | 105° |
| 2026-05-04 17:44 | 19.13249 | 73.04982 | 4105 ft | 198 kts | 106° |
| 2026-05-04 17:44 | 19.12947 | 73.06369 | 4059 ft | 189 kts | 105° |
| 2026-05-04 17:44 | 19.12661 | 73.07680 | 3977 ft | 178 kts | 105° |
| 2026-05-04 17:45 | 19.12388 | 73.08943 | 3808 ft | 173 kts | 105° |
| 2026-05-04 17:45 | 19.12128 | 73.10180 | 3585 ft | 172 kts | 105° |
| 2026-05-04 17:45 | 19.11875 | 73.11411 | 3376 ft | 170 kts | 105° |
| 2026-05-04 17:45 | 19.11636 | 73.12633 | 3160 ft | 169 kts | 105° |
| 2026-05-04 17:46 | 19.11406 | 73.13841 | 3013 ft | 166 kts | 105° |
| 2026-05-04 17:46 | 19.11081 | 73.15007 | 2964 ft | 166 kts | 123° |
| 2026-05-04 17:46 | 19.10247 | 73.15764 | 2913 ft | 159 kts | 164° |
| 2026-05-04 17:46 | 19.09197 | 73.15735 | 2902 ft | 153 kts | 206° |
| 2026-05-04 17:47 | 19.08535 | 73.14907 | 2914 ft | 153 kts | 257° |
| 2026-05-04 17:47 | 19.08658 | 73.13767 | 2889 ft | 158 kts | 284° |
| 2026-05-04 17:47 | 19.08984 | 73.12662 | 2900 ft | 161 kts | 285° |
| 2026-05-04 17:47 | 19.09211 | 73.11528 | 2899 ft | 156 kts | 275° |
| 2026-05-04 17:48 | 19.09260 | 73.10378 | 2890 ft | 154 kts | 266° |
| 2026-05-04 17:48 | 19.09208 | 73.09243 | 2891 ft | 156 kts | 265° |
| 2026-05-04 17:48 | 19.09187 | 73.08105 | 2896 ft | 155 kts | 267° |
| 2026-05-04 17:48 | 19.09172 | 73.06952 | 2893 ft | 155 kts | 266° |
| 2026-05-04 17:49 | 19.09152 | 73.05816 | 2897 ft | 155 kts | 266° |
| 2026-05-04 17:49 | 19.09133 | 73.04676 | 2891 ft | 150 kts | 267° |
| 2026-05-04 17:49 | 19.09117 | 73.03533 | 2841 ft | 160 kts | 265° |
| 2026-05-04 17:49 | 19.09096 | 73.02364 | 2648 ft | 158 kts | 266° |
| 2026-05-04 17:50 | 19.09081 | 73.01216 | 2440 ft | 153 kts | 266° |
| 2026-05-04 17:50 | 19.09066 | 73.00135 | 2262 ft | 140 kts | 265° |
| 2026-05-04 17:50 | 19.09048 | 72.99118 | 2094 ft | 141 kts | 265° |
| 2026-05-04 17:50 | 19.09034 | 72.98098 | 1905 ft | 134 kts | 266° |
| 2026-05-04 17:51 | 19.09017 | 72.97074 | 1736 ft | 141 kts | 266° |
| 2026-05-04 17:51 | 19.09006 | 72.96106 | 1570 ft | 136 kts | 265° |
| 2026-05-04 17:51 | 19.08988 | 72.95077 | 1383 ft | 137 kts | 265° |
| 2026-05-04 17:51 | 19.08972 | 72.94056 | 1219 ft | 145 kts | 267° |
| 2026-05-04 17:52 | 19.08960 | 72.93016 | 1029 ft | 140 kts | 266° |
| 2026-05-04 17:52 | 19.08946 | 72.92060 | 873 ft | 137 kts | 266° |
| 2026-05-04 17:52 | 19.08933 | 72.91038 | 689 ft | 140 kts | 266° |
| 2026-05-04 17:52 | 19.08915 | 72.90044 | 511 ft | 133 kts | 266° |
| 2026-05-04 17:53 | 19.08902 | 72.89027 | 352 ft | 136 kts | 268° |
| 2026-05-04 17:53 | 19.08889 | 72.88050 | 166 ft | 136 kts | 265° |
| 2026-05-04 17:53 | 19.08874 | 72.87072 | 42 ft | 117 kts | 270° |
| 2026-05-04 17:53 | 19.08868 | 72.86539 | 38 ft | 30 kts | 268° |
| 2026-05-04 17:54 | 19.08864 | 72.86412 | 38 ft | 18 kts | 268° |
| 2026-05-04 17:54 | 19.08861 | 72.86209 | 36 ft | 36 kts | 269° |
| 2026-05-04 17:54 | 19.08864 | 72.86066 | 35 ft | 3 kts | 275° |
| 2026-05-04 17:54 | 19.08871 | 72.86024 | 35 ft | 9 kts | 283° |
| 2026-05-04 17:55 | 19.08889 | 72.85954 | 35 ft | 11 kts | 285° |
| 2026-05-04 17:55 | 19.08927 | 72.85878 | 35 ft | 13 kts | 301° |
| 2026-05-04 17:55 | 19.08976 | 72.85792 | 36 ft | 15 kts | 302° |
| 2026-05-04 17:55 | 19.09062 | 72.85737 | 37 ft | 15 kts | 342° |
| 2026-05-04 17:56 | 19.09100 | 72.85717 | 38 ft | 0 kts | 335° |